Time;durP1;ratioP1;P1;durP2;ratioP2;P2;SDS_P1;SDS_P2;PMS_P1;PMS_P2;Temp;Humidity;BMP_temperature;BMP_pressure;BME280_temperature;BME280_humidity;BME280_pressure;Samples;Min_cycle;Max_cycle;Signal;HPM_P1;HPM_P2
2022/12/14 00:00:59;;;;;;;28.08;13.13;;;-2.60;99.90;;;;;;5001464;28;20038;-69
2022/12/14 00:03:24;;;;;;;31.20;12.57;;;-2.70;99.90;;;;;;5002716;28;20037;-68
2022/12/14 00:05:50;;;;;;;30.87;12.83;;;-2.70;99.90;;;;;;5002109;28;20587;-68
2022/12/14 00:08:17;;;;;;;31.27;12.32;;;-2.70;99.90;;;;;;5005460;28;20523;-68
2022/12/14 00:10:43;;;;;;;27.23;12.48;;;-2.70;99.90;;;;;;5002471;28;20057;-68
2022/12/14 00:13:13;;;;;;;30.85;12.93;;;-2.70;99.90;;;;;;5004383;28;20045;-68
2022/12/14 00:15:39;;;;;;;33.08;13.38;;;-2.70;99.90;;;;;;4999912;28;20046;-68
2022/12/14 00:18:05;;;;;;;35.40;13.87;;;-2.70;99.90;;;;;;4999154;28;20084;-68
2022/12/14 00:20:32;;;;;;;26.53;12.57;;;-2.80;99.90;;;;;;4999926;28;20586;-68
2022/12/14 00:22:57;;;;;;;30.23;12.98;;;-2.80;99.90;;;;;;5008404;28;20069;-68
2022/12/14 00:25:24;;;;;;;30.87;13.27;;;-2.80;99.90;;;;;;5003362;28;20148;-68
2022/12/14 00:27:50;;;;;;;35.42;14.07;;;-2.80;99.90;;;;;;5001134;28;20042;-69
2022/12/14 00:30:18;;;;;;;31.98;14.07;;;-2.80;99.90;;;;;;5005823;28;20149;-69
2022/12/14 00:32:44;;;;;;;32.20;14.32;;;-2.90;99.90;;;;;;4999240;28;20053;-68
2022/12/14 00:35:11;;;;;;;30.13;12.83;;;-2.90;99.90;;;;;;5004585;28;20072;-69
2022/12/14 00:37:37;;;;;;;31.08;12.73;;;-2.90;99.90;;;;;;5002114;28;20100;-68
2022/12/14 00:40:05;;;;;;;28.25;13.07;;;-2.90;99.90;;;;;;5003233;28;20076;-69
2022/12/14 00:42:31;;;;;;;31.20;12.95;;;-3.00;99.90;;;;;;5006815;28;20062;-69
2022/12/14 00:44:56;;;;;;;26.73;13.03;;;-3.00;99.90;;;;;;5002775;28;20034;-69
2022/12/14 00:47:22;;;;;;;29.60;12.40;;;-3.10;99.90;;;;;;5000934;28;20038;-69
2022/12/14 00:49:48;;;;;;;26.20;12.33;;;-3.10;99.90;;;;;;5005253;28;20057;-68
2022/12/14 00:52:13;;;;;;;35.07;13.10;;;-3.10;99.90;;;;;;5005238;28;20562;-69
2022/12/14 00:54:39;;;;;;;32.20;12.60;;;-3.10;99.90;;;;;;5023863;28;20449;-69
2022/12/14 00:57:05;;;;;;;29.03;11.87;;;-3.20;99.90;;;;;;5010563;28;20064;-69
2022/12/14 00:59:31;;;;;;;30.73;12.95;;;-3.20;99.90;;;;;;5001211;28;20092;-68
2022/12/14 01:01:56;;;;;;;29.97;12.20;;;-3.20;99.90;;;;;;5005572;28;20042;-68
2022/12/14 01:04:23;;;;;;;24.60;11.37;;;-3.30;99.90;;;;;;4999540;28;20109;-69
2022/12/14 01:06:50;;;;;;;24.92;11.63;;;-3.30;99.90;;;;;;5002601;28;20363;-69
2022/12/14 01:09:18;;;;;;;29.60;12.10;;;-3.30;99.90;;;;;;4985756;28;20046;-69
2022/12/14 01:11:44;;;;;;;26.55;11.93;;;-3.40;99.90;;;;;;5022118;28;20042;-69
2022/12/14 01:14:11;;;;;;;30.17;12.40;;;-3.40;99.90;;;;;;5009342;28;20132;-68
2022/12/14 01:16:38;;;;;;;33.15;13.73;;;-3.40;99.90;;;;;;4999983;28;20117;-69
2022/12/14 01:19:04;;;;;;;29.50;11.77;;;-3.40;99.90;;;;;;5002064;28;20046;-69
2022/12/14 01:21:30;;;;;;;33.45;13.05;;;-3.40;99.90;;;;;;5009695;28;20538;-68
2022/12/14 01:23:59;;;;;;;26.33;12.80;;;-3.40;99.90;;;;;;5007180;28;20046;-68
2022/12/14 01:26:27;;;;;;;29.40;11.55;;;-3.50;99.90;;;;;;5001922;28;20286;-68
2022/12/14 01:28:56;;;;;;;28.05;12.20;;;-3.50;99.90;;;;;;4998490;28;20041;-68
2022/12/14 01:31:25;;;;;;;32.95;13.55;;;-3.50;99.90;;;;;;5005496;28;20455;-68
2022/12/14 01:33:51;;;;;;;24.98;11.25;;;-3.60;99.90;;;;;;5002141;28;20602;-68
2022/12/14 01:36:20;;;;;;;27.53;11.83;;;-3.60;99.90;;;;;;5003856;28;20049;-68
2022/12/14 01:38:45;;;;;;;26.80;12.52;;;-3.70;99.90;;;;;;5005628;28;20061;-68
2022/12/14 01:41:25;;;;;;;24.40;12.23;;;-3.70;99.90;;;;;;5005340;28;20041;-68
2022/12/14 01:43:52;;;;;;;25.35;11.35;;;-3.80;99.90;;;;;;4998536;28;20425;-68
2022/12/14 01:46:39;;;;;;;29.33;12.57;;;-3.90;99.90;;;;;;5007767;28;20033;-68
2022/12/14 01:49:27;;;;;;;31.25;12.50;;;-3.80;99.90;;;;;;5000741;28;20097;-68
2022/12/14 01:52:02;;;;;;;32.75;12.43;;;-3.90;99.90;;;;;;4997184;28;20050;-68
2022/12/14 01:54:31;;;;;;;26.20;12.63;;;-3.90;99.90;;;;;;5011670;28;20136;-68
2022/12/14 01:56:57;;;;;;;29.15;13.55;;;-3.90;99.90;;;;;;4993171;28;20144;-68
2022/12/14 01:59:27;;;;;;;29.30;11.30;;;-4.00;99.90;;;;;;5021868;28;20046;-67
2022/12/14 02:01:54;;;;;;;27.13;11.30;;;-4.00;99.90;;;;;;5004489;28;20096;-68
2022/12/14 02:04:20;;;;;;;29.00;12.40;;;-4.10;99.90;;;;;;4987544;28;20042;-68
2022/12/14 02:06:47;;;;;;;25.95;11.63;;;-4.10;99.90;;;;;;4999470;28;20129;-68
2022/12/14 02:09:19;;;;;;;22.13;11.05;;;-4.10;99.90;;;;;;5011009;28;20117;-70
2022/12/14 02:12:18;;;;;;;26.20;11.70;;;-4.10;99.90;;;;;;5002835;28;20037;-68
2022/12/14 02:14:46;;;;;;;28.38;12.07;;;-4.20;99.90;;;;;;5005737;28;20203;-68
2022/12/14 02:17:13;;;;;;;26.55;12.15;;;-4.20;99.90;;;;;;5005056;28;20056;-68
2022/12/14 02:19:40;;;;;;;23.92;11.15;;;-4.20;99.90;;;;;;5011751;28;20060;-68
2022/12/14 02:22:28;;;;;;;30.02;11.50;;;-4.30;99.90;;;;;;5001195;28;20034;-68
2022/12/14 02:25:08;;;;;;;25.25;10.80;;;-4.30;99.90;;;;;;5006576;28;20345;-68
2022/12/14 02:28:06;;;;;;;22.52;11.40;;;-4.40;99.90;;;;;;4998480;28;20053;-68
2022/12/14 02:30:37;;;;;;;24.73;10.68;;;-4.40;99.90;;;;;;5011059;28;20045;-69
2022/12/14 02:33:18;;;;;;;33.63;11.82;;;-4.40;99.90;;;;;;4993610;28;20057;-68
2022/12/14 02:35:52;;;;;;;27.52;11.65;;;-4.40;99.90;;;;;;5015143;28;20145;-69
2022/12/14 02:38:40;;;;;;;29.83;10.73;;;-4.50;99.90;;;;;;5009741;28;20438;-68
2022/12/14 02:41:11;;;;;;;32.90;10.27;;;-4.50;99.90;;;;;;5001638;28;20126;-69
2022/12/14 02:44:24;;;;;;;23.98;10.48;;;-4.50;99.90;;;;;;5005793;28;20503;-68
2022/12/14 02:47:15;;;;;;;23.23;9.50;;;-4.50;99.90;;;;;;4975762;28;20643;-68
2022/12/14 02:50:35;;;;;;;28.58;11.27;;;-4.50;99.90;;;;;;5006539;28;20153;-68
2022/12/14 02:53:13;;;;;;;27.35;11.35;;;-4.50;99.90;;;;;;4915773;29;20051;-68
2022/12/14 02:55:44;;;;;;;28.77;11.45;;;-4.50;99.90;;;;;;4997221;28;20092;-68
2022/12/14 02:58:22;;;;;;;25.00;11.32;;;-4.50;99.90;;;;;;4988346;28;20044;-68
2022/12/14 03:00:48;;;;;;;25.58;10.45;;;-4.50;99.90;;;;;;5007098;28;21070;-69
2022/12/14 03:03:14;;;;;;;28.77;11.32;;;-4.50;99.90;;;;;;5008111;28;20044;-68
2022/12/14 03:05:40;;;;;;;28.07;11.47;;;-4.50;99.90;;;;;;5006434;28;20128;-69
2022/12/14 03:08:10;;;;;;;25.90;10.47;;;-4.50;99.90;;;;;;5005407;28;20030;-69
2022/12/14 03:11:02;;;;;;;28.83;12.48;;;-4.50;99.90;;;;;;5011745;28;20402;-68
2022/12/14 03:13:36;;;;;;;27.67;11.57;;;-4.50;99.90;;;;;;5007803;28;20045;-69
2022/12/14 03:16:10;;;;;;;27.33;11.40;;;-4.50;99.90;;;;;;5003114;28;20060;-68
2022/12/14 03:18:44;;;;;;;28.17;11.60;;;-4.50;99.90;;;;;;4991319;28;20072;-69
2022/12/14 03:21:13;;;;;;;22.90;11.38;;;-4.50;99.90;;;;;;5005006;28;20046;-69
2022/12/14 03:23:42;;;;;;;28.67;11.27;;;-4.50;99.90;;;;;;5021759;28;20205;-68
2022/12/14 03:26:33;;;;;;;24.70;11.45;;;-4.60;99.90;;;;;;4989342;28;20480;-68
2022/12/14 03:29:13;;;;;;;24.35;10.38;;;-4.60;99.90;;;;;;5004270;28;20038;-69
2022/12/14 03:31:52;;;;;;;27.33;12.50;;;-4.60;99.90;;;;;;5019312;28;20050;-68
2022/12/14 03:34:23;;;;;;;27.88;10.48;;;-4.60;99.90;;;;;;5004868;28;20048;-68
2022/12/14 03:36:51;;;;;;;31.58;10.50;;;-4.60;99.90;;;;;;5005962;28;20586;-68
2022/12/14 03:39:25;;;;;;;25.80;11.63;;;-4.60;99.90;;;;;;5011174;28;20038;-69
2022/12/14 03:42:23;;;;;;;26.02;9.98;;;-4.60;99.90;;;;;;5007488;28;20068;-69
2022/12/14 03:45:14;;;;;;;27.88;11.05;;;-4.60;99.90;;;;;;5003069;28;20052;-69
2022/12/14 03:47:46;;;;;;;27.23;10.07;;;-4.70;99.90;;;;;;4971510;28;20743;-70
2022/12/14 03:50:18;;;;;;;27.25;10.48;;;-4.70;99.90;;;;;;5009305;28;20050;-69
2022/12/14 03:53:04;;;;;;;31.02;11.05;;;-4.70;99.90;;;;;;5010278;28;20426;-70
2022/12/14 03:55:45;;;;;;;21.17;10.13;;;-4.70;99.90;;;;;;4951978;28;20074;-69
2022/12/14 03:58:36;;;;;;;28.75;11.25;;;-4.70;99.90;;;;;;5003912;28;20110;-69
2022/12/14 04:01:31;;;;;;;23.17;9.95;;;-4.70;99.90;;;;;;5001412;28;20042;-69
2022/12/14 04:04:19;;;;;;;21.85;9.68;;;-4.80;99.90;;;;;;5003069;28;20057;-69
2022/12/14 04:06:56;;;;;;;25.58;10.13;;;-4.80;99.90;;;;;;5003734;28;20049;-72
2022/12/14 04:09:38;;;;;;;25.88;9.68;;;-4.80;99.90;;;;;;5003860;28;20045;-69
2022/12/14 04:21:02;;;;;;;25.42;10.13;;;-4.80;99.90;;;;;;5005360;28;20365;-69
2022/12/14 04:26:24;;;;;;;32.42;11.57;;;-4.90;99.90;;;;;;5015584;28;20439;-73
2022/12/14 04:31:52;;;;;;;23.77;9.60;;;-4.90;99.90;;;;;;4979969;28;20060;-69
2022/12/14 04:34:22;;;;;;;21.45;10.02;;;-4.90;99.90;;;;;;5004610;28;20072;-69
2022/12/14 04:37:01;;;;;;;30.48;11.43;;;-4.90;99.90;;;;;;5004543;28;20492;-69
2022/12/14 04:39:34;;;;;;;24.42;9.40;;;-5.00;99.90;;;;;;5005913;28;20044;-68
2022/12/14 04:42:04;;;;;;;25.38;10.85;;;-5.10;99.90;;;;;;5003081;28;20041;-68
2022/12/14 04:44:35;;;;;;;23.67;10.68;;;-5.10;99.90;;;;;;5004549;28;20427;-69
2022/12/14 04:47:04;;;;;;;23.33;11.20;;;-5.10;99.90;;;;;;5002042;28;20075;-68
2022/12/14 04:49:49;;;;;;;24.75;10.35;;;-5.10;99.90;;;;;;5005048;28;20160;-68
2022/12/14 04:52:24;;;;;;;30.90;11.48;;;-5.10;99.90;;;;;;5004563;28;20392;-68
2022/12/14 04:55:10;;;;;;;27.88;11.00;;;-5.10;99.90;;;;;;5004842;28;20060;-68
2022/12/14 04:57:41;;;;;;;25.30;9.75;;;-5.20;99.90;;;;;;5002832;28;20046;-67
2022/12/14 05:00:08;;;;;;;27.02;11.82;;;-5.20;99.90;;;;;;5003207;28;20052;-68
2022/12/14 05:03:07;;;;;;;29.77;12.23;;;-5.20;99.90;;;;;;5060258;23;20104;-71
2022/12/14 05:05:56;;;;;;;24.60;10.43;;;-5.20;99.90;;;;;;5001329;28;20038;-71
2022/12/14 05:08:31;;;;;;;27.50;10.68;;;-5.20;99.90;;;;;;4995732;28;20081;-71
2022/12/14 05:11:09;;;;;;;30.30;12.23;;;-5.30;99.90;;;;;;4999734;28;20045;-71
2022/12/14 05:13:41;;;;;;;25.23;9.95;;;-5.30;99.90;;;;;;5000916;28;20058;-71
2022/12/14 05:16:07;;;;;;;25.80;11.32;;;-5.20;99.90;;;;;;4996720;28;20048;-71
2022/12/14 05:18:34;;;;;;;29.88;11.73;;;-5.30;99.90;;;;;;4989246;28;20504;-71
2022/12/14 05:20:59;;;;;;;25.40;10.63;;;-5.30;99.90;;;;;;4998997;28;20053;-71
2022/12/14 05:23:25;;;;;;;31.80;11.57;;;-5.30;99.90;;;;;;4981391;28;20092;-71
2022/12/14 05:25:51;;;;;;;28.13;12.27;;;-5.30;99.90;;;;;;4994588;28;20049;-70
2022/12/14 05:28:16;;;;;;;31.13;11.73;;;-5.30;99.90;;;;;;4999641;28;20448;-71
2022/12/14 05:30:42;;;;;;;27.70;12.10;;;-5.30;99.90;;;;;;4998029;28;20050;-71
2022/12/14 05:33:19;;;;;;;24.67;10.43;;;-5.30;99.90;;;;;;4998575;28;20076;-71
2022/12/14 05:35:45;;;;;;;32.72;11.68;;;-5.40;99.90;;;;;;4996552;28;20030;-71
2022/12/14 05:38:12;;;;;;;28.80;10.70;;;-5.40;99.90;;;;;;4989789;28;20105;-71
2022/12/14 05:40:38;;;;;;;24.10;10.63;;;-5.40;99.90;;;;;;4994494;28;20708;-71
2022/12/14 05:43:12;;;;;;;24.23;10.02;;;-5.40;99.90;;;;;;4995302;28;20042;-71
2022/12/14 05:45:38;;;;;;;24.77;11.30;;;-5.40;99.90;;;;;;4994442;28;20053;-71
2022/12/14 05:48:03;;;;;;;32.10;10.10;;;-5.50;99.90;;;;;;5000864;28;20062;-71
2022/12/14 05:50:30;;;;;;;23.90;10.63;;;-5.40;99.90;;;;;;4996675;28;20038;-71
2022/12/14 05:52:55;;;;;;;24.45;9.55;;;-5.40;99.90;;;;;;4997599;28;20372;-71
2022/12/14 05:55:21;;;;;;;22.87;9.43;;;-5.40;99.90;;;;;;4999320;28;20076;-71
2022/12/14 05:57:47;;;;;;;23.15;11.40;;;-5.50;99.90;;;;;;4997877;28;20663;-71
2022/12/14 06:00:13;;;;;;;23.27;10.50;;;-5.50;99.90;;;;;;4996138;28;20045;-71
2022/12/14 06:02:39;;;;;;;22.13;9.32;;;-5.50;99.90;;;;;;5001210;28;20090;-71
2022/12/14 06:05:05;;;;;;;21.50;8.98;;;-5.50;99.90;;;;;;5002762;28;20525;-71
2022/12/14 06:07:30;;;;;;;27.33;10.90;;;-5.50;99.90;;;;;;5000813;28;20148;-71
2022/12/14 06:09:56;;;;;;;27.17;10.07;;;-5.50;99.90;;;;;;4992427;28;20451;-71
2022/12/14 06:12:22;;;;;;;23.23;9.47;;;-5.50;99.90;;;;;;4986358;28;20041;-71
2022/12/14 06:14:47;;;;;;;26.33;10.40;;;-5.50;99.90;;;;;;4998705;28;20038;-71
2022/12/14 06:17:13;;;;;;;25.10;10.27;;;-5.50;99.90;;;;;;4998601;28;20061;-71
2022/12/14 06:19:38;;;;;;;24.37;9.93;;;-5.50;99.90;;;;;;4996090;28;20511;-71
2022/12/14 06:22:04;;;;;;;25.00;10.13;;;-5.50;99.90;;;;;;5005436;28;20037;-71
2022/12/14 06:24:30;;;;;;;25.13;11.07;;;-5.50;99.90;;;;;;5005022;28;20089;-72
2022/12/14 06:26:55;;;;;;;24.33;10.33;;;-5.40;99.90;;;;;;5004389;28;20029;-71
2022/12/14 06:29:21;;;;;;;28.27;9.97;;;-5.50;99.90;;;;;;4998884;28;20038;-71
2022/12/14 06:31:46;;;;;;;26.93;10.37;;;-5.50;99.90;;;;;;5002063;28;20045;-71
2022/12/14 06:34:12;;;;;;;21.00;10.03;;;-5.50;99.90;;;;;;5000011;28;20491;-71
2022/12/14 06:36:41;;;;;;;21.97;9.20;;;-5.50;99.90;;;;;;5001087;28;20045;-72
2022/12/14 06:39:11;;;;;;;32.03;11.05;;;-5.50;99.90;;;;;;5002798;28;20275;-71
2022/12/14 06:41:37;;;;;;;33.45;11.90;;;-5.50;99.90;;;;;;4999496;28;20049;-72
2022/12/14 06:44:04;;;;;;;37.30;13.07;;;-5.50;99.90;;;;;;4998891;28;20087;-73
2022/12/14 06:46:30;;;;;;;33.13;10.63;;;-5.50;99.90;;;;;;5000713;28;20038;-70
2022/12/14 06:48:55;;;;;;;25.47;11.77;;;-5.60;99.90;;;;;;4996913;28;20049;-70
2022/12/14 06:51:23;;;;;;;26.63;11.67;;;-5.60;99.90;;;;;;5002129;28;20040;-70
2022/12/14 06:53:50;;;;;;;36.08;11.88;;;-5.50;99.90;;;;;;4999143;28;20129;-70
2022/12/14 06:56:18;;;;;;;38.78;12.70;;;-5.60;99.90;;;;;;4997437;28;20117;-70
2022/12/14 06:58:44;;;;;;;33.40;11.77;;;-5.60;99.90;;;;;;5001498;28;20081;-71
2022/12/14 07:01:13;;;;;;;43.60;13.35;;;-5.60;99.90;;;;;;4996400;28;20053;-70
2022/12/14 07:03:40;;;;;;;35.95;12.80;;;-5.60;99.90;;;;;;5001292;28;20127;-71
2022/12/14 07:06:06;;;;;;;31.58;12.20;;;-5.60;99.90;;;;;;4998794;28;20037;-71
2022/12/14 07:08:34;;;;;;;28.77;11.80;;;-5.60;99.90;;;;;;5012345;28;20042;-70
2022/12/14 07:11:05;;;;;;;38.30;12.55;;;-5.60;99.90;;;;;;4997685;28;20812;-68
2022/12/14 07:13:31;;;;;;;29.73;11.73;;;-5.60;99.90;;;;;;4995635;28;20468;-68
2022/12/14 07:15:58;;;;;;;26.08;10.30;;;-5.70;99.90;;;;;;5000388;28;20038;-68
2022/12/14 07:18:25;;;;;;;29.48;11.75;;;-5.70;99.90;;;;;;5000368;28;20077;-69
2022/12/14 07:20:58;;;;;;;;;;;-5.70;99.90;;;;;;4997368;28;20061;-68
2022/12/14 07:23:24;;;;;;;25.75;9.80;;;-5.70;99.90;;;;;;4998753;28;19928;-69
2022/12/14 07:25:51;;;;;;;26.05;11.25;;;-5.80;99.90;;;;;;4995027;28;20089;-69
2022/12/14 07:28:17;;;;;;;30.50;10.52;;;-5.80;99.90;;;;;;5000771;28;20053;-69
2022/12/14 07:30:43;;;;;;;30.95;11.52;;;-5.80;99.90;;;;;;4999948;28;20064;-69
2022/12/14 07:33:09;;;;;;;25.77;10.60;;;-5.80;99.90;;;;;;5002863;28;20042;-71
2022/12/14 07:35:34;;;;;;;25.77;11.57;;;-5.80;99.90;;;;;;4996198;28;20046;-71
2022/12/14 07:38:00;;;;;;;33.43;12.40;;;-5.90;99.90;;;;;;5000130;28;20038;-69
2022/12/14 07:40:26;;;;;;;20.17;9.33;;;-5.90;99.90;;;;;;4998103;28;20037;-69
2022/12/14 07:42:51;;;;;;;29.27;10.77;;;-5.90;99.90;;;;;;5000126;28;20396;-69
2022/12/14 07:45:17;;;;;;;33.57;10.53;;;-5.80;99.90;;;;;;4993079;28;20064;-69
2022/12/14 07:47:42;;;;;;;25.67;10.40;;;-5.90;99.90;;;;;;4991350;28;20120;-69
2022/12/14 07:50:09;;;;;;;24.63;9.97;;;-5.80;99.90;;;;;;5003206;28;20045;-68
2022/12/14 07:52:35;;;;;;;23.40;11.00;;;-5.80;99.90;;;;;;5003219;28;20137;-68
2022/12/14 07:55:00;;;;;;;31.70;11.30;;;-5.90;99.90;;;;;;5000106;28;20189;-69
2022/12/14 07:57:26;;;;;;;31.87;11.63;;;-5.80;99.90;;;;;;4997042;28;20401;-69
2022/12/14 07:59:51;;;;;;;30.57;11.97;;;-5.80;99.90;;;;;;5004723;28;20064;-69
2022/12/14 08:02:17;;;;;;;29.00;11.17;;;-5.80;99.90;;;;;;4996268;28;20029;-69
2022/12/14 08:04:43;;;;;;;33.07;12.63;;;-5.90;99.90;;;;;;4998936;28;20363;-69
2022/12/14 08:07:08;;;;;;;31.13;11.80;;;-5.90;99.90;;;;;;5002273;28;20120;-71
2022/12/14 08:09:34;;;;;;;32.60;11.67;;;-5.90;99.90;;;;;;5001441;28;20049;-70
2022/12/14 08:11:59;;;;;;;27.50;10.87;;;-5.90;99.90;;;;;;4996530;28;20037;-71
2022/12/14 08:14:25;;;;;;;28.93;11.23;;;-5.90;99.90;;;;;;5000112;28;20057;-70
2022/12/14 08:16:51;;;;;;;25.27;11.50;;;-5.90;99.90;;;;;;4994014;28;20515;-71
2022/12/14 08:19:17;;;;;;;21.50;9.90;;;-5.80;99.90;;;;;;5002145;28;20130;-70
2022/12/14 08:21:44;;;;;;;24.50;9.45;;;-5.80;99.90;;;;;;4993542;28;20046;-69
2022/12/14 08:24:10;;;;;;;;;;;-5.80;99.90;;;;;;5001569;28;20042;-69
2022/12/14 08:26:36;;;;;;;26.23;9.98;;;-5.70;99.90;;;;;;5001335;28;20506;-69
2022/12/14 08:29:03;;;;;;;20.90;9.63;;;-5.70;99.90;;;;;;4999529;28;20117;-69
2022/12/14 08:31:29;;;;;;;23.08;9.43;;;-5.70;99.90;;;;;;5002933;28;20091;-69
2022/12/14 08:33:56;;;;;;;26.83;10.15;;;-5.70;99.90;;;;;;5001131;28;20034;-68
2022/12/14 08:36:25;;;;;;;29.35;10.13;;;-5.70;99.90;;;;;;4996484;28;20100;-68
2022/12/14 08:38:56;;;;;;;28.98;11.27;;;-5.60;99.90;;;;;;4996512;28;20710;-69
2022/12/14 08:41:23;;;;;;;26.70;10.98;;;-5.50;99.90;;;;;;5019260;28;20053;-68
2022/12/14 08:43:50;;;;;;;22.85;10.40;;;-5.50;99.90;;;;;;4999939;28;20072;-69
2022/12/14 08:46:16;;;;;;;25.42;9.70;;;-5.40;99.90;;;;;;4995157;28;20463;-69
2022/12/14 08:48:42;;;;;;;29.48;9.77;;;-5.40;99.90;;;;;;5000373;28;20049;-69
2022/12/14 08:51:09;;;;;;;27.57;10.37;;;-5.30;99.90;;;;;;4996521;28;20096;-69
2022/12/14 08:53:37;;;;;;;24.42;10.27;;;-5.30;99.90;;;;;;4996144;28;20042;-69
2022/12/14 08:56:13;;;;;;;25.30;9.55;;;-5.20;99.90;;;;;;4993427;28;20049;-69
2022/12/14 08:58:40;;;;;;;25.63;11.57;;;-5.30;99.90;;;;;;5002517;28;20423;-68
2022/12/14 09:01:13;;;;;;;30.10;10.93;;;-5.20;99.90;;;;;;4995383;28;20175;-69
2022/12/14 09:03:46;;;;;;;29.70;11.55;;;-5.10;99.90;;;;;;4992538;28;20065;-68
2022/12/14 09:06:14;;;;;;;21.48;10.10;;;-5.10;99.90;;;;;;4987510;28;20041;-70
2022/12/14 09:08:40;;;;;;;22.90;10.02;;;-5.10;99.90;;;;;;4999579;28;20057;-68
2022/12/14 09:11:08;;;;;;;27.80;11.07;;;-5.00;99.90;;;;;;4998543;28;20038;-68
2022/12/14 09:13:34;;;;;;;26.02;9.52;;;-5.00;99.90;;;;;;5000673;28;20081;-68
2022/12/14 09:16:05;;;;;;;26.50;10.43;;;-4.90;99.90;;;;;;5001100;28;20556;-69
2022/12/14 09:18:33;;;;;;;37.90;13.05;;;-4.80;99.90;;;;;;4992369;28;20488;-69
2022/12/14 09:20:59;;;;;;;31.58;12.25;;;-4.80;99.90;;;;;;5001131;28;20404;-69
2022/12/14 09:23:27;;;;;;;28.98;11.05;;;-4.70;99.90;;;;;;4990057;28;20084;-69
2022/12/14 09:26:11;;;;;;;24.33;9.35;;;-4.60;99.90;;;;;;4993689;28;20141;-69
2022/12/14 09:28:38;;;;;;;21.05;8.48;;;-4.50;99.90;;;;;;4980161;28;20056;-71
2022/12/14 09:31:07;;;;;;;23.42;10.52;;;-4.50;99.90;;;;;;5008275;28;20069;-69
2022/12/14 09:33:34;;;;;;;31.02;10.25;;;-4.40;99.90;;;;;;4998995;28;20045;-69
2022/12/14 09:36:01;;;;;;;24.88;9.70;;;-4.30;99.90;;;;;;4998269;28;20041;-69
2022/12/14 09:38:29;;;;;;;23.67;9.55;;;-4.20;99.90;;;;;;4993666;28;20101;-69
2022/12/14 09:40:59;;;;;;;29.17;10.75;;;-4.10;99.90;;;;;;4999785;28;20034;-68
2022/12/14 09:43:54;;;;;;;24.35;9.05;;;-4.10;99.90;;;;;;4997198;28;20065;-69
2022/12/14 09:46:41;;;;;;;23.45;8.10;;;-4.00;99.90;;;;;;4970361;28;20072;-69
2022/12/14 09:49:33;;;;;;;26.17;10.32;;;-3.90;99.90;;;;;;4999794;28;22062;-70
2022/12/14 09:52:02;;;;;;;26.48;10.48;;;-3.80;99.90;;;;;;4998959;28;20042;-69
2022/12/14 09:54:32;;;;;;;27.73;10.65;;;-3.70;99.90;;;;;;4998883;28;20155;-69
2022/12/14 09:57:12;;;;;;;26.17;9.45;;;-3.60;99.90;;;;;;5005126;28;20038;-70
2022/12/14 09:59:39;;;;;;;20.83;9.35;;;-3.50;99.90;;;;;;5004980;28;20138;-70
2022/12/14 10:02:23;;;;;;;23.23;8.27;;;-3.40;99.90;;;;;;5003580;28;20466;-70
2022/12/14 10:05:00;;;;;;;28.85;9.18;;;-3.30;99.90;;;;;;4996742;28;20203;-69
2022/12/14 10:07:53;;;;;;;20.63;8.40;;;-3.20;99.90;;;;;;4995612;28;20042;-69
2022/12/14 10:10:42;;;;;;;20.85;8.45;;;-3.00;99.90;;;;;;4996545;28;20068;-69
2022/12/14 10:13:35;;;;;;;26.08;9.57;;;-2.90;99.90;;;;;;5000687;28;20068;-70
2022/12/14 10:16:29;;;;;;;20.00;9.07;;;-2.80;99.90;;;;;;4999280;28;20033;-69
2022/12/14 10:19:15;;;;;;;23.70;8.60;;;-2.60;99.90;;;;;;5003295;28;20069;-70
2022/12/14 10:21:47;;;;;;;21.40;8.43;;;-2.60;99.90;;;;;;5004426;28;20042;-69
2022/12/14 10:24:44;;;;;;;21.05;8.55;;;-2.40;99.90;;;;;;4996446;28;20054;-69
2022/12/14 10:27:21;;;;;;;24.35;8.20;;;-2.30;99.90;;;;;;4994426;28;20053;-69
2022/12/14 10:29:52;;;;;;;22.30;8.32;;;-2.20;99.90;;;;;;5001451;28;20043;-69
2022/12/14 10:32:31;;;;;;;18.85;8.25;;;-2.10;99.90;;;;;;5001814;28;20046;-69
2022/12/14 10:34:59;;;;;;;19.63;7.57;;;-1.90;99.90;;;;;;5004491;28;20038;-69
2022/12/14 10:37:41;;;;;;;22.42;7.45;;;-1.80;99.90;;;;;;5001374;28;20038;-70
2022/12/14 10:40:22;;;;;;;21.48;8.25;;;-1.70;99.90;;;;;;5001207;28;20046;-70
2022/12/14 10:43:11;;;;;;;18.95;8.05;;;-1.60;99.90;;;;;;5000975;28;20128;-70
2022/12/14 10:45:50;;;;;;;20.30;8.50;;;-1.50;99.90;;;;;;4996583;28;20188;-69
2022/12/14 10:48:37;;;;;;;17.90;7.35;;;-1.40;99.90;;;;;;5004763;28;20192;-70
2022/12/14 10:51:12;;;;;;;16.08;6.72;;;-1.30;99.90;;;;;;4999385;28;20140;-69
2022/12/14 10:53:42;;;;;;;17.23;7.07;;;-1.20;99.90;;;;;;5004135;28;20061;-69
2022/12/14 10:56:17;;;;;;;18.20;8.02;;;-1.10;99.90;;;;;;5002197;28;20493;-69
2022/12/14 10:58:43;;;;;;;18.63;7.32;;;-1.00;99.90;;;;;;5001075;28;20051;-69
2022/12/14 11:01:13;;;;;;;15.90;6.70;;;-0.90;99.90;;;;;;5001793;28;20046;-69
2022/12/14 11:03:40;;;;;;;11.10;5.25;;;-0.80;99.90;;;;;;5019740;23;20046;-67
2022/12/14 11:06:14;;;;;;;17.85;6.57;;;-0.70;99.90;;;;;;5008032;28;20042;-67
2022/12/14 11:08:47;;;;;;;13.63;6.53;;;-0.60;99.90;;;;;;4994737;28;20375;-67
2022/12/14 11:11:24;;;;;;;20.05;6.80;;;-0.60;99.90;;;;;;5002066;28;20121;-67
2022/12/14 11:14:05;;;;;;;17.92;6.43;;;-0.50;99.90;;;;;;5005712;28;20080;-67
2022/12/14 11:16:37;;;;;;;17.58;6.45;;;-0.50;99.90;;;;;;5005360;28;20361;-67
2022/12/14 11:19:12;;;;;;;14.15;6.78;;;-0.40;99.90;;;;;;5010950;28;20044;-67
2022/12/14 11:21:38;;;;;;;15.70;6.35;;;-0.40;99.90;;;;;;5006973;28;20681;-67
2022/12/14 11:24:04;;;;;;;11.77;6.13;;;-0.30;99.90;;;;;;5008066;28;20034;-67
2022/12/14 11:26:36;;;;;;;14.48;6.00;;;-0.30;99.90;;;;;;5004342;28;20291;-67
2022/12/14 11:29:22;;;;;;;13.70;6.68;;;-0.20;99.90;;;;;;5004528;28;20132;-67
2022/12/14 11:31:52;;;;;;;13.95;6.38;;;-0.10;99.90;;;;;;5002695;28;20054;-67
2022/12/14 11:34:41;;;;;;;14.65;6.50;;;0.00;99.90;;;;;;5002608;28;20037;-67
2022/12/14 11:37:31;;;;;;;19.83;6.75;;;0.10;99.90;;;;;;5003351;28;20042;-67
2022/12/14 11:39:59;;;;;;;14.77;6.45;;;0.10;99.90;;;;;;5007425;28;20069;-67
2022/12/14 11:42:26;;;;;;;15.95;6.45;;;0.20;99.90;;;;;;5006473;28;20041;-67
2022/12/14 11:44:53;;;;;;;17.63;7.45;;;0.30;99.90;;;;;;5005153;28;20040;-67
2022/12/14 11:47:27;;;;;;;13.60;6.68;;;0.30;99.90;;;;;;5008825;28;20156;-67
2022/12/14 11:49:54;;;;;;;13.82;5.97;;;0.50;99.90;;;;;;5004065;28;20379;-67
2022/12/14 11:52:40;;;;;;;19.00;6.93;;;0.50;99.90;;;;;;5004842;28;20519;-67
2022/12/14 11:55:12;;;;;;;16.20;6.82;;;0.60;99.90;;;;;;5006797;28;20034;-67
2022/12/14 11:57:51;;;;;;;16.98;6.50;;;0.70;99.90;;;;;;5005541;28;20128;-67
2022/12/14 12:00:22;;;;;;;13.65;6.13;;;0.80;99.90;;;;;;5004327;28;20133;-67
2022/12/14 12:03:05;;;;;;;14.90;7.00;;;0.90;99.90;;;;;;5005011;28;20048;-67
2022/12/14 12:05:33;;;;;;;14.95;6.60;;;1.00;99.90;;;;;;5004691;28;20049;-67
2022/12/14 12:08:01;;;;;;;15.57;6.60;;;1.10;99.90;;;;;;4999804;28;20030;-67
2022/12/14 12:10:40;;;;;;;16.73;6.43;;;1.20;99.90;;;;;;5000590;28;20090;-67
2022/12/14 12:13:20;;;;;;;16.27;7.15;;;1.20;99.90;;;;;;4997516;28;20148;-67
2022/12/14 12:15:55;;;;;;;16.17;6.93;;;1.30;99.90;;;;;;4997882;28;20065;-67
2022/12/14 12:18:34;;;;;;;16.50;6.88;;;1.30;99.90;;;;;;4996044;28;20034;-67
2022/12/14 12:21:15;;;;;;;19.92;7.32;;;1.40;99.90;;;;;;5001703;28;20042;-67
2022/12/14 12:24:05;;;;;;;17.83;7.30;;;1.40;99.90;;;;;;5004615;28;20038;-67
2022/12/14 12:26:49;;;;;;;15.10;6.72;;;1.40;99.90;;;;;;4999957;28;20065;-67
2022/12/14 12:29:36;;;;;;;17.20;7.82;;;1.50;99.90;;;;;;5002416;28;20046;-67
2022/12/14 12:32:22;;;;;;;17.35;7.38;;;1.50;99.90;;;;;;5001129;28;20056;-65
2022/12/14 12:34:51;;;;;;;18.30;7.03;;;1.60;99.90;;;;;;5002620;28;20045;-65
2022/12/14 12:37:48;;;;;;;17.00;6.78;;;1.60;99.90;;;;;;5004884;28;20049;-66
2022/12/14 12:40:21;;;;;;;20.45;8.05;;;1.70;99.90;;;;;;4994258;28;20428;-66
2022/12/14 12:43:17;;;;;;;15.48;7.78;;;1.60;99.90;;;;;;4999267;28;20061;-65
2022/12/14 12:45:52;;;;;;;17.65;7.78;;;1.60;99.90;;;;;;5003865;28;20499;-66
2022/12/14 12:48:37;;;;;;;18.08;7.18;;;1.60;99.90;;;;;;5003189;28;20492;-66
2022/12/14 12:51:09;;;;;;;16.27;7.80;;;1.60;99.90;;;;;;5006277;28;20067;-66
2022/12/14 12:53:40;;;;;;;17.85;7.57;;;1.60;99.90;;;;;;5004396;28;20495;-66
2022/12/14 12:56:17;;;;;;;14.05;6.20;;;1.60;99.90;;;;;;5005391;28;20372;-66
2022/12/14 12:58:45;;;;;;;16.65;6.78;;;1.50;99.90;;;;;;5001638;28;20414;-66
2022/12/14 13:01:33;;;;;;;18.55;6.60;;;1.40;99.90;;;;;;5004606;28;20049;-66
2022/12/14 13:04:05;;;;;;;17.65;6.55;;;1.30;99.90;;;;;;4995482;28;20042;-65
2022/12/14 13:06:43;;;;;;;14.77;5.72;;;1.30;99.90;;;;;;4998589;28;20141;-65
2022/12/14 13:09:35;;;;;;;17.40;7.22;;;1.20;99.90;;;;;;5003143;28;20575;-65
2022/12/14 13:12:03;;;;;;;21.48;8.77;;;1.20;99.90;;;;;;5005426;28;20037;-66
2022/12/14 13:14:43;;;;;;;17.83;8.45;;;1.10;99.90;;;;;;5006112;28;20073;-66